sensor_id;sensor_type;location;lat;lon;timestamp;P1;durP1;ratioP1;P2;durP2;ratioP2
71665;SDS011;59503;53.486;10.196;2022-08-01T00:00:23;25.80;;;16.08;;
71665;SDS011;59503;53.486;10.196;2022-08-01T00:02:48;23.87;;;15.70;;
71665;SDS011;59503;53.486;10.196;2022-08-01T00:05:14;26.90;;;17.00;;
71665;SDS011;59503;53.486;10.196;2022-08-01T00:07:39;20.73;;;14.63;;
71665;SDS011;59503;53.486;10.196;2022-08-01T00:10:09;26.70;;;17.93;;
71665;SDS011;59503;53.486;10.196;2022-08-01T00:12:38;33.95;;;19.02;;
71665;SDS011;59503;53.486;10.196;2022-08-01T00:15:05;25.40;;;17.23;;
71665;SDS011;59503;53.486;10.196;2022-08-01T00:17:32;32.97;;;17.23;;
71665;SDS011;59503;53.486;10.196;2022-08-01T00:19:58;29.03;;;17.87;;
71665;SDS011;59503;53.486;10.196;2022-08-01T00:22:24;27.58;;;18.40;;
71665;SDS011;59503;53.486;10.196;2022-08-01T00:24:50;43.92;;;19.48;;
71665;SDS011;59503;53.486;10.196;2022-08-01T00:27:15;29.57;;;19.37;;
71665;SDS011;59503;53.486;10.196;2022-08-01T00:29:41;29.33;;;18.70;;
71665;SDS011;59503;53.486;10.196;2022-08-01T00:32:06;32.17;;;20.03;;
71665;SDS011;59503;53.486;10.196;2022-08-01T00:34:32;37.28;;;21.10;;
71665;SDS011;59503;53.486;10.196;2022-08-01T00:36:58;34.07;;;20.23;;
71665;SDS011;59503;53.486;10.196;2022-08-01T00:39:23;35.45;;;19.48;;
71665;SDS011;59503;53.486;10.196;2022-08-01T00:41:49;29.97;;;17.77;;
71665;SDS011;59503;53.486;10.196;2022-08-01T00:44:15;30.50;;;17.47;;
71665;SDS011;59503;53.486;10.196;2022-08-01T00:46:40;29.25;;;17.52;;
71665;SDS011;59503;53.486;10.196;2022-08-01T00:49:06;27.57;;;17.37;;
71665;SDS011;59503;53.486;10.196;2022-08-01T00:51:32;26.08;;;16.45;;
71665;SDS011;59503;53.486;10.196;2022-08-01T00:53:58;26.55;;;17.05;;
71665;SDS011;59503;53.486;10.196;2022-08-01T00:56:26;25.33;;;15.97;;
71665;SDS011;59503;53.486;10.196;2022-08-01T00:58:53;24.58;;;15.10;;
71665;SDS011;59503;53.486;10.196;2022-08-01T01:01:20;24.13;;;15.32;;
71665;SDS011;59503;53.486;10.196;2022-08-01T01:03:48;24.85;;;14.95;;
71665;SDS011;59503;53.486;10.196;2022-08-01T01:12:08;29.17;;;17.27;;
71665;SDS011;59503;53.486;10.196;2022-08-01T01:17:44;31.05;;;18.23;;
71665;SDS011;59503;53.486;10.196;2022-08-01T01:20:42;27.40;;;16.60;;
71665;SDS011;59503;53.486;10.196;2022-08-01T01:31:41;26.13;;;15.30;;
71665;SDS011;59503;53.486;10.196;2022-08-01T01:34:11;25.98;;;14.88;;
71665;SDS011;59503;53.486;10.196;2022-08-01T01:36:38;28.53;;;15.27;;
71665;SDS011;59503;53.486;10.196;2022-08-01T01:39:07;25.98;;;14.80;;
71665;SDS011;59503;53.486;10.196;2022-08-01T01:41:33;24.95;;;15.05;;
71665;SDS011;59503;53.486;10.196;2022-08-01T01:44:01;28.20;;;15.80;;
71665;SDS011;59503;53.486;10.196;2022-08-01T01:46:29;25.15;;;15.15;;
71665;SDS011;59503;53.486;10.196;2022-08-01T01:48:56;27.48;;;15.60;;
71665;SDS011;59503;53.486;10.196;2022-08-01T01:51:24;23.55;;;13.63;;
71665;SDS011;59503;53.486;10.196;2022-08-01T01:53:51;26.23;;;14.20;;
71665;SDS011;59503;53.486;10.196;2022-08-01T01:56:19;23.30;;;13.00;;
71665;SDS011;59503;53.486;10.196;2022-08-01T01:58:48;26.02;;;14.18;;
71665;SDS011;59503;53.486;10.196;2022-08-01T02:01:16;26.85;;;15.32;;
71665;SDS011;59503;53.486;10.196;2022-08-01T02:03:43;22.00;;;13.98;;
71665;SDS011;59503;53.486;10.196;2022-08-01T02:06:11;24.10;;;14.57;;
71665;SDS011;59503;53.486;10.196;2022-08-01T02:08:38;24.93;;;14.70;;
71665;SDS011;59503;53.486;10.196;2022-08-01T02:11:06;27.40;;;15.27;;
71665;SDS011;59503;53.486;10.196;2022-08-01T02:13:50;24.15;;;14.48;;
71665;SDS011;59503;53.486;10.196;2022-08-01T02:16:20;23.55;;;13.70;;
71665;SDS011;59503;53.486;10.196;2022-08-01T02:18:48;21.58;;;13.48;;
71665;SDS011;59503;53.486;10.196;2022-08-01T02:21:16;25.17;;;12.80;;
71665;SDS011;59503;53.486;10.196;2022-08-01T02:23:49;28.23;;;14.20;;
71665;SDS011;59503;53.486;10.196;2022-08-01T02:26:16;33.80;;;13.68;;
71665;SDS011;59503;53.486;10.196;2022-08-01T02:28:45;32.45;;;13.98;;
71665;SDS011;59503;53.486;10.196;2022-08-01T02:31:16;19.25;;;11.88;;
71665;SDS011;59503;53.486;10.196;2022-08-01T02:33:45;27.03;;;11.60;;
71665;SDS011;59503;53.486;10.196;2022-08-01T02:36:15;22.27;;;11.75;;
71665;SDS011;59503;53.486;10.196;2022-08-01T02:38:44;21.58;;;12.80;;
71665;SDS011;59503;53.486;10.196;2022-08-01T02:41:12;22.48;;;12.32;;
71665;SDS011;59503;53.486;10.196;2022-08-01T02:43:42;17.70;;;10.07;;
71665;SDS011;59503;53.486;10.196;2022-08-01T02:46:13;16.33;;;10.10;;
71665;SDS011;59503;53.486;10.196;2022-08-01T02:48:45;16.60;;;10.15;;
71665;SDS011;59503;53.486;10.196;2022-08-01T02:51:12;17.60;;;10.23;;
71665;SDS011;59503;53.486;10.196;2022-08-01T02:53:41;19.80;;;10.82;;
71665;SDS011;59503;53.486;10.196;2022-08-01T02:56:09;18.90;;;10.27;;
71665;SDS011;59503;53.486;10.196;2022-08-01T02:58:37;21.57;;;10.37;;
71665;SDS011;59503;53.486;10.196;2022-08-01T03:01:04;16.65;;;10.90;;
71665;SDS011;59503;53.486;10.196;2022-08-01T03:03:32;17.48;;;10.48;;
71665;SDS011;59503;53.486;10.196;2022-08-01T03:05:59;18.73;;;10.43;;
71665;SDS011;59503;53.486;10.196;2022-08-01T03:08:25;20.85;;;9.85;;
71665;SDS011;59503;53.486;10.196;2022-08-01T03:10:53;17.70;;;10.67;;
71665;SDS011;59503;53.486;10.196;2022-08-01T03:13:21;20.58;;;10.57;;
71665;SDS011;59503;53.486;10.196;2022-08-01T03:15:50;19.30;;;10.30;;
71665;SDS011;59503;53.486;10.196;2022-08-01T03:18:19;22.73;;;11.30;;
71665;SDS011;59503;53.486;10.196;2022-08-01T03:20:47;16.27;;;9.88;;
71665;SDS011;59503;53.486;10.196;2022-08-01T03:23:14;18.30;;;10.27;;
71665;SDS011;59503;53.486;10.196;2022-08-01T03:25:41;17.58;;;10.95;;
71665;SDS011;59503;53.486;10.196;2022-08-01T03:28:12;19.27;;;9.75;;
71665;SDS011;59503;53.486;10.196;2022-08-01T03:30:39;19.92;;;11.93;;
71665;SDS011;59503;53.486;10.196;2022-08-01T03:33:06;20.85;;;10.60;;
71665;SDS011;59503;53.486;10.196;2022-08-01T03:35:37;19.57;;;10.97;;
71665;SDS011;59503;53.486;10.196;2022-08-01T03:38:17;18.10;;;10.43;;
71665;SDS011;59503;53.486;10.196;2022-08-01T03:40:47;17.58;;;10.00;;
71665;SDS011;59503;53.486;10.196;2022-08-01T03:43:32;16.17;;;9.60;;
71665;SDS011;59503;53.486;10.196;2022-08-01T03:46:06;14.32;;;9.60;;
71665;SDS011;59503;53.486;10.196;2022-08-01T03:48:36;17.85;;;9.55;;
71665;SDS011;59503;53.486;10.196;2022-08-01T03:51:08;12.32;;;8.50;;
71665;SDS011;59503;53.486;10.196;2022-08-01T03:53:36;17.55;;;9.82;;
71665;SDS011;59503;53.486;10.196;2022-08-01T03:56:04;14.67;;;9.60;;
71665;SDS011;59503;53.486;10.196;2022-08-01T03:58:33;12.75;;;8.02;;
71665;SDS011;59503;53.486;10.196;2022-08-01T04:01:00;16.45;;;8.45;;
71665;SDS011;59503;53.486;10.196;2022-08-01T04:03:26;18.98;;;10.35;;
71665;SDS011;59503;53.486;10.196;2022-08-01T04:05:52;17.20;;;9.93;;
71665;SDS011;59503;53.486;10.196;2022-08-01T04:08:18;13.97;;;8.63;;
71665;SDS011;59503;53.486;10.196;2022-08-01T04:10:44;14.90;;;7.75;;
71665;SDS011;59503;53.486;10.196;2022-08-01T04:13:09;11.03;;;7.50;;
71665;SDS011;59503;53.486;10.196;2022-08-01T04:15:35;12.67;;;7.00;;
71665;SDS011;59503;53.486;10.196;2022-08-01T04:18:00;15.18;;;7.97;;
71665;SDS011;59503;53.486;10.196;2022-08-01T04:20:26;11.30;;;6.63;;
71665;SDS011;59503;53.486;10.196;2022-08-01T04:22:51;11.10;;;5.60;;
71665;SDS011;59503;53.486;10.196;2022-08-01T04:25:28;9.95;;;5.95;;
71665;SDS011;59503;53.486;10.196;2022-08-01T04:27:59;9.90;;;6.10;;
71665;SDS011;59503;53.486;10.196;2022-08-01T04:30:29;8.90;;;5.25;;
71665;SDS011;59503;53.486;10.196;2022-08-01T04:32:59;10.25;;;5.50;;
71665;SDS011;59503;53.486;10.196;2022-08-01T04:35:26;12.13;;;5.50;;
71665;SDS011;59503;53.486;10.196;2022-08-01T04:37:53;7.78;;;5.50;;
71665;SDS011;59503;53.486;10.196;2022-08-01T04:40:19;9.17;;;5.30;;
71665;SDS011;59503;53.486;10.196;2022-08-01T04:42:49;7.32;;;4.95;;
71665;SDS011;59503;53.486;10.196;2022-08-01T04:45:15;11.18;;;5.22;;
71665;SDS011;59503;53.486;10.196;2022-08-01T04:47:41;10.80;;;5.88;;
71665;SDS011;59503;53.486;10.196;2022-08-01T04:50:08;11.13;;;5.13;;
71665;SDS011;59503;53.486;10.196;2022-08-01T04:52:35;8.52;;;5.20;;
71665;SDS011;59503;53.486;10.196;2022-08-01T04:55:01;10.25;;;5.03;;
71665;SDS011;59503;53.486;10.196;2022-08-01T04:57:27;8.18;;;4.68;;
71665;SDS011;59503;53.486;10.196;2022-08-01T04:59:53;10.70;;;4.83;;
71665;SDS011;59503;53.486;10.196;2022-08-01T05:02:21;6.82;;;4.18;;
71665;SDS011;59503;53.486;10.196;2022-08-01T05:04:48;5.50;;;3.72;;
71665;SDS011;59503;53.486;10.196;2022-08-01T05:07:14;6.00;;;4.00;;
71665;SDS011;59503;53.486;10.196;2022-08-01T05:09:41;4.43;;;3.70;;
71665;SDS011;59503;53.486;10.196;2022-08-01T05:12:07;5.43;;;3.35;;
71665;SDS011;59503;53.486;10.196;2022-08-01T05:14:34;5.00;;;2.92;;
71665;SDS011;59503;53.486;10.196;2022-08-01T05:17:00;4.45;;;2.78;;
71665;SDS011;59503;53.486;10.196;2022-08-01T05:19:32;5.00;;;2.73;;
71665;SDS011;59503;53.486;10.196;2022-08-01T05:21:58;3.50;;;2.88;;
71665;SDS011;59503;53.486;10.196;2022-08-01T05:24:26;6.82;;;2.97;;
71665;SDS011;59503;53.486;10.196;2022-08-01T05:26:55;11.13;;;2.88;;
71665;SDS011;59503;53.486;10.196;2022-08-01T05:29:21;4.50;;;2.97;;
71665;SDS011;59503;53.486;10.196;2022-08-01T05:31:47;6.10;;;3.03;;
71665;SDS011;59503;53.486;10.196;2022-08-01T05:34:12;5.93;;;2.80;;
71665;SDS011;59503;53.486;10.196;2022-08-01T05:36:38;6.40;;;2.90;;
71665;SDS011;59503;53.486;10.196;2022-08-01T05:39:04;6.03;;;2.77;;
71665;SDS011;59503;53.486;10.196;2022-08-01T05:41:30;4.63;;;2.60;;
71665;SDS011;59503;53.486;10.196;2022-08-01T05:43:55;3.55;;;2.47;;
71665;SDS011;59503;53.486;10.196;2022-08-01T05:46:21;6.00;;;1.37;;
71665;SDS011;59503;53.486;10.196;2022-08-01T05:48:47;3.55;;;1.75;;
71665;SDS011;59503;53.486;10.196;2022-08-01T05:51:12;3.40;;;1.50;;
71665;SDS011;59503;53.486;10.196;2022-08-01T05:53:38;3.13;;;1.60;;
71665;SDS011;59503;53.486;10.196;2022-08-01T05:56:04;4.13;;;2.07;;
71665;SDS011;59503;53.486;10.196;2022-08-01T05:58:29;4.05;;;1.95;;
71665;SDS011;59503;53.486;10.196;2022-08-01T06:00:55;4.03;;;2.17;;
71665;SDS011;59503;53.486;10.196;2022-08-01T06:03:21;4.53;;;2.30;;
71665;SDS011;59503;53.486;10.196;2022-08-01T06:05:46;6.33;;;2.20;;
71665;SDS011;59503;53.486;10.196;2022-08-01T06:08:12;4.57;;;2.40;;
71665;SDS011;59503;53.486;10.196;2022-08-01T06:10:37;6.10;;;2.67;;
71665;SDS011;59503;53.486;10.196;2022-08-01T06:13:03;3.67;;;2.17;;
71665;SDS011;59503;53.486;10.196;2022-08-01T06:15:29;3.15;;;2.33;;
71665;SDS011;59503;53.486;10.196;2022-08-01T06:17:58;4.68;;;2.10;;
71665;SDS011;59503;53.486;10.196;2022-08-01T06:20:24;5.30;;;2.00;;
71665;SDS011;59503;53.486;10.196;2022-08-01T06:22:49;6.45;;;2.10;;
71665;SDS011;59503;53.486;10.196;2022-08-01T06:25:17;6.27;;;2.37;;
71665;SDS011;59503;53.486;10.196;2022-08-01T06:27:43;3.88;;;2.40;;
71665;SDS011;59503;53.486;10.196;2022-08-01T06:30:09;5.18;;;2.83;;
71665;SDS011;59503;53.486;10.196;2022-08-01T06:32:35;4.72;;;2.58;;
71665;SDS011;59503;53.486;10.196;2022-08-01T06:35:00;4.80;;;2.97;;
71665;SDS011;59503;53.486;10.196;2022-08-01T06:37:29;5.53;;;3.17;;
71665;SDS011;59503;53.486;10.196;2022-08-01T06:39:59;4.87;;;3.50;;
71665;SDS011;59503;53.486;10.196;2022-08-01T06:42:34;8.43;;;3.55;;
71665;SDS011;59503;53.486;10.196;2022-08-01T06:45:04;6.97;;;3.80;;
71665;SDS011;59503;53.486;10.196;2022-08-01T06:47:31;9.18;;;4.65;;
71665;SDS011;59503;53.486;10.196;2022-08-01T06:49:56;6.37;;;4.60;;
71665;SDS011;59503;53.486;10.196;2022-08-01T06:52:22;8.03;;;4.30;;
71665;SDS011;59503;53.486;10.196;2022-08-01T06:54:48;8.52;;;4.25;;
71665;SDS011;59503;53.486;10.196;2022-08-01T06:57:13;5.67;;;3.67;;
71665;SDS011;59503;53.486;10.196;2022-08-01T06:59:39;12.10;;;3.83;;
71665;SDS011;59503;53.486;10.196;2022-08-01T07:02:04;6.43;;;3.50;;
71665;SDS011;59503;53.486;10.196;2022-08-01T07:04:31;9.20;;;3.53;;
71665;SDS011;59503;53.486;10.196;2022-08-01T07:06:57;8.52;;;2.92;;
71665;SDS011;59503;53.486;10.196;2022-08-01T07:09:22;8.37;;;3.40;;
71665;SDS011;59503;53.486;10.196;2022-08-01T07:11:48;8.18;;;4.03;;
71665;SDS011;59503;53.486;10.196;2022-08-01T07:14:15;6.87;;;4.87;;
71665;SDS011;59503;53.486;10.196;2022-08-01T07:16:41;8.57;;;5.05;;
71665;SDS011;59503;53.486;10.196;2022-08-01T07:19:06;13.20;;;5.93;;
71665;SDS011;59503;53.486;10.196;2022-08-01T07:21:32;8.52;;;5.47;;
71665;SDS011;59503;53.486;10.196;2022-08-01T07:23:58;9.23;;;5.50;;
71665;SDS011;59503;53.486;10.196;2022-08-01T07:26:24;12.20;;;5.57;;
71665;SDS011;59503;53.486;10.196;2022-08-01T07:28:49;10.10;;;5.80;;
71665;SDS011;59503;53.486;10.196;2022-08-01T07:31:15;10.63;;;5.80;;
71665;SDS011;59503;53.486;10.196;2022-08-01T07:33:40;12.53;;;6.03;;
71665;SDS011;59503;53.486;10.196;2022-08-01T07:36:06;12.73;;;5.90;;
71665;SDS011;59503;53.486;10.196;2022-08-01T07:38:31;9.43;;;5.57;;
71665;SDS011;59503;53.486;10.196;2022-08-01T07:40:57;9.77;;;4.60;;
71665;SDS011;59503;53.486;10.196;2022-08-01T07:43:23;9.82;;;4.55;;
71665;SDS011;59503;53.486;10.196;2022-08-01T07:45:48;9.73;;;4.60;;
71665;SDS011;59503;53.486;10.196;2022-08-01T07:48:14;9.40;;;4.97;;
71665;SDS011;59503;53.486;10.196;2022-08-01T07:50:39;9.70;;;4.50;;
71665;SDS011;59503;53.486;10.196;2022-08-01T07:53:05;8.07;;;4.33;;
71665;SDS011;59503;53.486;10.196;2022-08-01T07:55:30;10.40;;;5.17;;
71665;SDS011;59503;53.486;10.196;2022-08-01T07:57:56;13.30;;;5.40;;
71665;SDS011;59503;53.486;10.196;2022-08-01T08:00:21;12.33;;;4.93;;
71665;SDS011;59503;53.486;10.196;2022-08-01T08:02:47;11.70;;;4.80;;
71665;SDS011;59503;53.486;10.196;2022-08-01T08:05:12;14.93;;;5.30;;
71665;SDS011;59503;53.486;10.196;2022-08-01T08:07:38;11.75;;;5.07;;
71665;SDS011;59503;53.486;10.196;2022-08-01T08:10:04;15.63;;;6.20;;
71665;SDS011;59503;53.486;10.196;2022-08-01T08:12:31;13.48;;;5.72;;
71665;SDS011;59503;53.486;10.196;2022-08-01T08:14:57;11.60;;;5.75;;
71665;SDS011;59503;53.486;10.196;2022-08-01T08:17:26;16.70;;;5.57;;
71665;SDS011;59503;53.486;10.196;2022-08-01T08:19:52;11.27;;;4.47;;
71665;SDS011;59503;53.486;10.196;2022-08-01T08:22:18;18.02;;;6.25;;
71665;SDS011;59503;53.486;10.196;2022-08-01T08:24:43;17.53;;;6.43;;
71665;SDS011;59503;53.486;10.196;2022-08-01T08:27:09;9.55;;;5.50;;
71665;SDS011;59503;53.486;10.196;2022-08-01T08:29:34;22.50;;;5.97;;
71665;SDS011;59503;53.486;10.196;2022-08-01T08:32:00;18.25;;;4.97;;
71665;SDS011;59503;53.486;10.196;2022-08-01T08:34:27;12.67;;;4.70;;
71665;SDS011;59503;53.486;10.196;2022-08-01T08:36:53;11.27;;;4.30;;
71665;SDS011;59503;53.486;10.196;2022-08-01T08:39:21;12.30;;;3.90;;
71665;SDS011;59503;53.486;10.196;2022-08-01T08:41:47;9.73;;;4.32;;
71665;SDS011;59503;53.486;10.196;2022-08-01T08:44:13;12.90;;;2.97;;
71665;SDS011;59503;53.486;10.196;2022-08-01T08:46:43;11.85;;;2.78;;
71665;SDS011;59503;53.486;10.196;2022-08-01T08:49:11;10.00;;;2.50;;
71665;SDS011;59503;53.486;10.196;2022-08-01T08:51:41;9.20;;;2.90;;
71665;SDS011;59503;53.486;10.196;2022-08-01T08:54:07;9.43;;;2.58;;
71665;SDS011;59503;53.486;10.196;2022-08-01T08:56:36;11.10;;;2.57;;
71665;SDS011;59503;53.486;10.196;2022-08-01T08:59:03;8.40;;;1.77;;
71665;SDS011;59503;53.486;10.196;2022-08-01T09:01:28;10.00;;;1.90;;
71665;SDS011;59503;53.486;10.196;2022-08-01T09:03:57;8.80;;;2.30;;
71665;SDS011;59503;53.486;10.196;2022-08-01T09:06:23;11.97;;;1.70;;
71665;SDS011;59503;53.486;10.196;2022-08-01T09:08:49;6.55;;;1.77;;
71665;SDS011;59503;53.486;10.196;2022-08-01T09:11:14;6.73;;;1.40;;
71665;SDS011;59503;53.486;10.196;2022-08-01T09:13:40;7.57;;;1.50;;
71665;SDS011;59503;53.486;10.196;2022-08-01T09:16:05;7.27;;;1.47;;
71665;SDS011;59503;53.486;10.196;2022-08-01T09:18:39;7.07;;;1.70;;
71665;SDS011;59503;53.486;10.196;2022-08-01T09:21:11;7.75;;;1.70;;
71665;SDS011;59503;53.486;10.196;2022-08-01T09:26:17;6.40;;;1.85;;
71665;SDS011;59503;53.486;10.196;2022-08-01T09:28:46;6.07;;;1.85;;
71665;SDS011;59503;53.486;10.196;2022-08-01T09:31:17;6.73;;;1.57;;
71665;SDS011;59503;53.486;10.196;2022-08-01T09:33:50;5.40;;;1.63;;
71665;SDS011;59503;53.486;10.196;2022-08-01T09:36:16;7.82;;;1.33;;
71665;SDS011;59503;53.486;10.196;2022-08-01T09:38:42;6.45;;;1.80;;
71665;SDS011;59503;53.486;10.196;2022-08-01T09:41:08;4.40;;;1.60;;
71665;SDS011;59503;53.486;10.196;2022-08-01T09:43:34;8.95;;;1.73;;
71665;SDS011;59503;53.486;10.196;2022-08-01T09:46:04;8.88;;;2.05;;
71665;SDS011;59503;53.486;10.196;2022-08-01T09:48:36;5.53;;;1.97;;
71665;SDS011;59503;53.486;10.196;2022-08-01T09:51:04;6.22;;;1.98;;
71665;SDS011;59503;53.486;10.196;2022-08-01T09:53:45;6.00;;;2.22;;
71665;SDS011;59503;53.486;10.196;2022-08-01T09:56:13;7.93;;;2.10;;
71665;SDS011;59503;53.486;10.196;2022-08-01T09:58:52;9.32;;;2.30;;
71665;SDS011;59503;53.486;10.196;2022-08-01T10:01:22;8.87;;;2.07;;
71665;SDS011;59503;53.486;10.196;2022-08-01T10:04:08;6.63;;;2.03;;
71665;SDS011;59503;53.486;10.196;2022-08-01T10:06:39;8.23;;;2.15;;
71665;SDS011;59503;53.486;10.196;2022-08-01T10:09:08;10.48;;;2.45;;
71665;SDS011;59503;53.486;10.196;2022-08-01T10:11:34;6.57;;;2.25;;
71665;SDS011;59503;53.486;10.196;2022-08-01T10:14:04;12.43;;;2.47;;
71665;SDS011;59503;53.486;10.196;2022-08-01T10:16:30;15.77;;;2.40;;
71665;SDS011;59503;53.486;10.196;2022-08-01T10:18:58;14.60;;;2.50;;
71665;SDS011;59503;53.486;10.196;2022-08-01T10:21:26;14.52;;;2.10;;
71665;SDS011;59503;53.486;10.196;2022-08-01T10:23:54;6.20;;;2.00;;
71665;SDS011;59503;53.486;10.196;2022-08-01T10:26:21;9.13;;;2.10;;
71665;SDS011;59503;53.486;10.196;2022-08-01T10:28:50;7.80;;;2.70;;
71665;SDS011;59503;53.486;10.196;2022-08-01T10:31:16;13.27;;;2.92;;
71665;SDS011;59503;53.486;10.196;2022-08-01T10:33:43;13.45;;;2.60;;
71665;SDS011;59503;53.486;10.196;2022-08-01T10:36:09;9.70;;;2.08;;
71665;SDS011;59503;53.486;10.196;2022-08-01T10:38:35;13.53;;;2.90;;
71665;SDS011;59503;53.486;10.196;2022-08-01T10:41:02;9.80;;;2.50;;
71665;SDS011;59503;53.486;10.196;2022-08-01T10:43:28;9.70;;;2.30;;
71665;SDS011;59503;53.486;10.196;2022-08-01T10:45:54;9.50;;;2.40;;
71665;SDS011;59503;53.486;10.196;2022-08-01T10:48:29;11.23;;;2.72;;
71665;SDS011;59503;53.486;10.196;2022-08-01T10:51:02;7.35;;;2.92;;
71665;SDS011;59503;53.486;10.196;2022-08-01T10:53:29;12.30;;;3.33;;
71665;SDS011;59503;53.486;10.196;2022-08-01T10:55:59;14.27;;;2.83;;
71665;SDS011;59503;53.486;10.196;2022-08-01T11:04:07;12.40;;;3.08;;
71665;SDS011;59503;53.486;10.196;2022-08-01T11:14:26;8.17;;;2.40;;
71665;SDS011;59503;53.486;10.196;2022-08-01T11:16:52;9.43;;;2.35;;
71665;SDS011;59503;53.486;10.196;2022-08-01T11:19:18;12.88;;;2.72;;
71665;SDS011;59503;53.486;10.196;2022-08-01T11:29:40;11.57;;;2.23;;
71665;SDS011;59503;53.486;10.196;2022-08-01T11:32:25;6.10;;;2.30;;
71665;SDS011;59503;53.486;10.196;2022-08-01T11:34:52;8.63;;;2.13;;
71665;SDS011;59503;53.486;10.196;2022-08-01T11:37:27;8.43;;;1.77;;
71665;SDS011;59503;53.486;10.196;2022-08-01T11:42:45;8.88;;;2.03;;
71665;SDS011;59503;53.486;10.196;2022-08-01T11:45:11;7.03;;;1.85;;
71665;SDS011;59503;53.486;10.196;2022-08-01T11:47:49;8.30;;;1.80;;
71665;SDS011;59503;53.486;10.196;2022-08-01T11:50:29;5.65;;;1.70;;
71665;SDS011;59503;53.486;10.196;2022-08-01T11:52:59;8.18;;;2.20;;
71665;SDS011;59503;53.486;10.196;2022-08-01T11:55:27;6.93;;;2.20;;
71665;SDS011;59503;53.486;10.196;2022-08-01T11:58:01;7.55;;;2.25;;
71665;SDS011;59503;53.486;10.196;2022-08-01T12:00:31;8.55;;;2.25;;
71665;SDS011;59503;53.486;10.196;2022-08-01T12:02:58;10.43;;;1.88;;
71665;SDS011;59503;53.486;10.196;2022-08-01T12:05:31;6.10;;;2.13;;
71665;SDS011;59503;53.486;10.196;2022-08-01T12:08:00;7.90;;;2.60;;
71665;SDS011;59503;53.486;10.196;2022-08-01T12:10:27;7.35;;;1.70;;
71665;SDS011;59503;53.486;10.196;2022-08-01T12:13:01;7.25;;;2.13;;
71665;SDS011;59503;53.486;10.196;2022-08-01T12:15:30;7.05;;;1.83;;
71665;SDS011;59503;53.486;10.196;2022-08-01T12:18:00;7.93;;;2.10;;
71665;SDS011;59503;53.486;10.196;2022-08-01T12:20:30;7.43;;;2.00;;
71665;SDS011;59503;53.486;10.196;2022-08-01T12:23:01;11.32;;;2.30;;
71665;SDS011;59503;53.486;10.196;2022-08-01T12:25:32;8.00;;;2.30;;
71665;SDS011;59503;53.486;10.196;2022-08-01T12:27:59;10.52;;;2.17;;
71665;SDS011;59503;53.486;10.196;2022-08-01T12:30:26;6.03;;;1.67;;
71665;SDS011;59503;53.486;10.196;2022-08-01T12:32:52;8.37;;;2.20;;
71665;SDS011;59503;53.486;10.196;2022-08-01T12:35:19;6.75;;;2.10;;
71665;SDS011;59503;53.486;10.196;2022-08-01T12:37:50;8.63;;;2.20;;
71665;SDS011;59503;53.486;10.196;2022-08-01T12:40:17;5.75;;;1.85;;
71665;SDS011;59503;53.486;10.196;2022-08-01T12:43:06;6.50;;;1.88;;
71665;SDS011;59503;53.486;10.196;2022-08-01T12:45:34;7.17;;;2.13;;
71665;SDS011;59503;53.486;10.196;2022-08-01T12:48:00;8.68;;;2.10;;
71665;SDS011;59503;53.486;10.196;2022-08-01T12:50:28;6.57;;;1.98;;
71665;SDS011;59503;53.486;10.196;2022-08-01T12:52:55;7.13;;;2.25;;
71665;SDS011;59503;53.486;10.196;2022-08-01T12:55:22;5.50;;;2.00;;
71665;SDS011;59503;53.486;10.196;2022-08-01T12:57:50;6.53;;;2.13;;
71665;SDS011;59503;53.486;10.196;2022-08-01T13:00:27;9.30;;;2.15;;
71665;SDS011;59503;53.486;10.196;2022-08-01T13:08:17;12.27;;;1.80;;
71665;SDS011;59503;53.486;10.196;2022-08-01T13:10:44;8.18;;;1.90;;
71665;SDS011;59503;53.486;10.196;2022-08-01T13:13:10;5.53;;;1.80;;
71665;SDS011;59503;53.486;10.196;2022-08-01T13:15:38;4.50;;;1.80;;
71665;SDS011;59503;53.486;10.196;2022-08-01T13:29:12;8.97;;;2.20;;
71665;SDS011;59503;53.486;10.196;2022-08-01T13:31:40;8.65;;;2.33;;
71665;SDS011;59503;53.486;10.196;2022-08-01T13:34:06;5.93;;;2.05;;
71665;SDS011;59503;53.486;10.196;2022-08-01T13:36:32;12.35;;;2.22;;
71665;SDS011;59503;53.486;10.196;2022-08-01T13:38:58;6.20;;;1.90;;
71665;SDS011;59503;53.486;10.196;2022-08-01T13:41:43;7.93;;;2.30;;
71665;SDS011;59503;53.486;10.196;2022-08-01T13:44:09;5.90;;;1.75;;
71665;SDS011;59503;53.486;10.196;2022-08-01T13:46:39;6.57;;;1.88;;
71665;SDS011;59503;53.486;10.196;2022-08-01T13:49:05;5.32;;;2.00;;
71665;SDS011;59503;53.486;10.196;2022-08-01T13:51:32;4.17;;;1.57;;
71665;SDS011;59503;53.486;10.196;2022-08-01T13:53:58;11.27;;;1.67;;
71665;SDS011;59503;53.486;10.196;2022-08-01T13:56:24;6.82;;;1.85;;
71665;SDS011;59503;53.486;10.196;2022-08-01T13:58:52;4.88;;;1.75;;
71665;SDS011;59503;53.486;10.196;2022-08-01T14:01:18;5.95;;;1.83;;
71665;SDS011;59503;53.486;10.196;2022-08-01T14:03:45;7.30;;;1.73;;
71665;SDS011;59503;53.486;10.196;2022-08-01T14:06:11;6.40;;;1.70;;
71665;SDS011;59503;53.486;10.196;2022-08-01T14:08:37;7.63;;;2.03;;
71665;SDS011;59503;53.486;10.196;2022-08-01T14:11:02;5.13;;;1.67;;
71665;SDS011;59503;53.486;10.196;2022-08-01T14:13:28;8.57;;;1.70;;
71665;SDS011;59503;53.486;10.196;2022-08-01T14:15:54;6.63;;;1.92;;
71665;SDS011;59503;53.486;10.196;2022-08-01T14:18:20;8.18;;;1.70;;
71665;SDS011;59503;53.486;10.196;2022-08-01T14:20:46;4.07;;;1.50;;
71665;SDS011;59503;53.486;10.196;2022-08-01T14:23:11;9.17;;;2.73;;
71665;SDS011;59503;53.486;10.196;2022-08-01T14:25:37;9.85;;;1.42;;
71665;SDS011;59503;53.486;10.196;2022-08-01T14:28:04;6.20;;;1.63;;
71665;SDS011;59503;53.486;10.196;2022-08-01T14:30:31;4.25;;;1.45;;
71665;SDS011;59503;53.486;10.196;2022-08-01T14:32:56;6.10;;;1.60;;
71665;SDS011;59503;53.486;10.196;2022-08-01T14:35:22;5.53;;;1.87;;
71665;SDS011;59503;53.486;10.196;2022-08-01T14:37:47;4.90;;;1.60;;
71665;SDS011;59503;53.486;10.196;2022-08-01T14:40:13;4.80;;;1.70;;
71665;SDS011;59503;53.486;10.196;2022-08-01T14:42:38;7.18;;;1.95;;
71665;SDS011;59503;53.486;10.196;2022-08-01T14:45:04;5.20;;;2.00;;
71665;SDS011;59503;53.486;10.196;2022-08-01T14:47:37;5.55;;;1.90;;
71665;SDS011;59503;53.486;10.196;2022-08-01T14:50:04;6.28;;;1.83;;
71665;SDS011;59503;53.486;10.196;2022-08-01T14:52:32;4.75;;;1.50;;
71665;SDS011;59503;53.486;10.196;2022-08-01T14:55:01;6.38;;;1.70;;
71665;SDS011;59503;53.486;10.196;2022-08-01T14:57:27;6.17;;;2.03;;
71665;SDS011;59503;53.486;10.196;2022-08-01T14:59:53;8.02;;;1.42;;
71665;SDS011;59503;53.486;10.196;2022-08-01T15:02:19;6.80;;;1.80;;
71665;SDS011;59503;53.486;10.196;2022-08-01T15:04:44;7.10;;;1.63;;
71665;SDS011;59503;53.486;10.196;2022-08-01T15:07:10;5.30;;;1.50;;
71665;SDS011;59503;53.486;10.196;2022-08-01T15:09:37;5.85;;;1.85;;
71665;SDS011;59503;53.486;10.196;2022-08-01T15:12:03;5.00;;;1.85;;
71665;SDS011;59503;53.486;10.196;2022-08-01T15:14:28;4.87;;;1.57;;
71665;SDS011;59503;53.486;10.196;2022-08-01T15:17:22;5.60;;;1.45;;
71665;SDS011;59503;53.486;10.196;2022-08-01T15:19:51;5.40;;;1.65;;
71665;SDS011;59503;53.486;10.196;2022-08-01T15:22:21;8.43;;;1.73;;
71665;SDS011;59503;53.486;10.196;2022-08-01T15:24:47;4.68;;;1.40;;
71665;SDS011;59503;53.486;10.196;2022-08-01T15:27:13;11.63;;;1.97;;
71665;SDS011;59503;53.486;10.196;2022-08-01T15:29:39;7.18;;;1.60;;